Time;durP1;ratioP1;P1;durP2;ratioP2;P2;SDS_P1;SDS_P2;PMS_P1;PMS_P2;Temp;Humidity;BMP_temperature;BMP_pressure;BME280_temperature;BME280_humidity;BME280_pressure;Samples;Min_cycle;Max_cycle;Signal;HPM_P1;HPM_P2
2023/01/28 06:00:43;;;;;;;10.73;9.73;;;3.40;97.20;;;;;;1693998;29;20204;-73
2023/01/28 06:01:33;;;;;;;11.32;10.23;;;3.40;97.20;;;;;;1694108;29;20218;-73
2023/01/28 06:02:25;;;;;;;10.80;9.80;;;3.50;97.20;;;;;;1694115;29;20210;-73
2023/01/28 06:03:16;;;;;;;11.10;10.00;;;3.50;97.20;;;;;;1693977;29;20692;-72
2023/01/28 06:04:08;;;;;;;10.87;9.87;;;3.50;97.20;;;;;;1693836;29;20710;-73
2023/01/28 06:04:58;;;;;;;10.32;9.32;;;3.50;97.20;;;;;;1693706;29;20257;-73
2023/01/28 06:05:50;;;;;;;10.23;9.20;;;3.50;97.20;;;;;;1693882;29;20206;-73
2023/01/28 06:06:41;;;;;;;10.63;9.63;;;3.50;97.20;;;;;;1694131;29;20444;-73
2023/01/28 06:07:32;;;;;;;10.67;9.67;;;3.50;97.20;;;;;;1694211;29;20214;-73
2023/01/28 06:08:23;;;;;;;10.60;9.60;;;3.50;97.20;;;;;;1694101;29;20614;-73
2023/01/28 06:09:15;;;;;;;10.80;9.80;;;3.50;97.20;;;;;;1694111;29;20199;-73
2023/01/28 06:10:07;;;;;;;10.15;9.15;;;3.40;97.20;;;;;;1693614;29;20670;-73
2023/01/28 06:10:58;;;;;;;10.95;9.88;;;3.50;97.20;;;;;;1693674;29;20219;-74
2023/01/28 06:11:49;;;;;;;10.30;9.30;;;3.50;97.20;;;;;;1693624;29;20689;-73
2023/01/28 06:12:42;;;;;;;9.43;8.52;;;3.50;97.20;;;;;;1693737;29;20250;-73
2023/01/28 06:13:33;;;;;;;11.35;10.35;;;3.50;97.20;;;;;;1694126;29;20215;-73
2023/01/28 06:14:24;;;;;;;10.27;9.20;;;3.50;97.20;;;;;;1694038;29;20200;-73
2023/01/28 06:15:15;;;;;;;10.32;9.43;;;3.50;97.20;;;;;;1694053;29;20212;-73
2023/01/28 06:16:07;;;;;;;10.73;9.73;;;3.50;97.20;;;;;;1694191;29;20210;-73
2023/01/28 06:16:59;;;;;;;10.45;9.43;;;3.50;97.20;;;;;;1693908;29;20454;-73
2023/01/28 06:17:50;;;;;;;9.90;9.00;;;3.50;97.20;;;;;;1693838;29;20208;-73
2023/01/28 06:18:42;;;;;;;10.43;9.40;;;3.50;97.20;;;;;;1693659;29;20684;-73
2023/01/28 06:19:32;;;;;;;10.27;9.38;;;3.50;97.20;;;;;;1693555;29;20220;-73
2023/01/28 06:20:24;;;;;;;9.87;8.90;;;3.50;97.20;;;;;;1693951;29;20217;-73
2023/01/28 06:21:15;;;;;;;10.20;9.30;;;3.50;97.20;;;;;;1693995;29;20219;-73
2023/01/28 06:22:06;;;;;;;10.00;9.10;;;3.50;97.20;;;;;;1694008;29;20211;-73
2023/01/28 06:22:57;;;;;;;10.57;9.52;;;3.50;97.20;;;;;;1693954;29;20211;-73
2023/01/28 06:23:49;;;;;;;10.40;8.83;;;3.50;97.20;;;;;;1693241;29;20206;-73
2023/01/28 06:24:39;;;;;;;10.20;9.20;;;3.50;97.20;;;;;;1693714;29;20674;-73
2023/01/28 06:25:31;;;;;;;9.50;8.60;;;3.50;97.20;;;;;;1693310;29;20570;-73
2023/01/28 06:26:22;;;;;;;9.70;8.80;;;3.50;97.20;;;;;;1693885;29;20214;-72
2023/01/28 06:27:14;;;;;;;9.70;8.80;;;3.50;97.20;;;;;;1694183;29;20208;-73
2023/01/28 06:28:04;;;;;;;12.75;10.60;;;3.50;97.20;;;;;;1690174;29;20627;-73
2023/01/28 06:28:56;;;;;;;10.80;9.80;;;3.50;97.20;;;;;;1690018;29;20212;-73
2023/01/28 06:29:47;;;;;;;10.20;9.20;;;3.50;97.20;;;;;;1692203;29;20463;-73
2023/01/28 06:30:39;;;;;;;10.60;9.60;;;3.50;97.20;;;;;;1693096;29;20234;-73
2023/01/28 06:31:32;;;;;;;10.55;9.55;;;3.50;97.20;;;;;;1693899;29;20459;-73
2023/01/28 06:32:24;;;;;;;11.27;10.15;;;3.50;97.20;;;;;;1688752;29;20205;-73
2023/01/28 06:33:14;;;;;;;10.50;9.40;;;3.50;97.20;;;;;;1692479;29;20196;-73
2023/01/28 06:34:06;;;;;;;11.73;10.63;;;3.50;97.20;;;;;;1693524;29;20196;-73
2023/01/28 06:34:57;;;;;;;11.05;9.95;;;3.40;97.20;;;;;;1693773;29;20698;-73
2023/01/28 06:35:47;;;;;;;10.40;9.40;;;3.40;97.20;;;;;;1692922;29;20593;-73
2023/01/28 06:36:39;;;;;;;10.67;9.63;;;3.40;97.20;;;;;;1693701;29;20215;-73
2023/01/28 06:37:30;;;;;;;11.80;10.60;;;3.40;97.20;;;;;;1693825;29;20242;-72
2023/01/28 06:38:22;;;;;;;10.70;9.70;;;3.40;97.20;;;;;;1692082;29;20200;-73
2023/01/28 06:39:12;;;;;;;11.10;10.10;;;3.40;97.20;;;;;;1693977;29;20211;-72
2023/01/28 06:40:05;;;;;;;10.73;9.63;;;3.40;97.20;;;;;;1693304;29;20294;-73
2023/01/28 06:40:57;;;;;;;10.13;9.20;;;3.40;97.20;;;;;;1693276;29;20278;-73
2023/01/28 06:41:49;;;;;;;11.07;9.95;;;3.40;97.20;;;;;;1693636;29;20743;-74
2023/01/28 06:42:39;;;;;;;10.60;9.50;;;3.40;97.20;;;;;;1693664;29;20211;-73
2023/01/28 06:43:31;;;;;;;10.43;9.33;;;3.40;97.20;;;;;;1693470;29;20206;-74
2023/01/28 06:44:22;;;;;;;11.80;10.60;;;3.40;97.20;;;;;;1693756;29;20588;-74
2023/01/28 06:45:14;;;;;;;10.68;9.68;;;3.40;97.20;;;;;;1693740;29;20346;-73
2023/01/28 06:46:05;;;;;;;11.73;10.60;;;3.40;97.20;;;;;;1693842;29;20267;-73
2023/01/28 06:46:58;;;;;;;11.00;9.90;;;3.40;97.20;;;;;;1694000;29;20252;-73
2023/01/28 06:47:48;;;;;;;11.13;10.02;;;3.40;97.20;;;;;;1693880;29;20208;-73
2023/01/28 06:48:40;;;;;;;10.17;9.27;;;3.40;97.20;;;;;;1693853;29;20658;-73
2023/01/28 06:49:31;;;;;;;11.50;10.35;;;3.40;97.20;;;;;;1693437;29;20208;-73
2023/01/28 06:50:23;;;;;;;10.87;9.80;;;3.40;97.20;;;;;;1693896;29;20208;-72
2023/01/28 06:51:14;;;;;;;10.68;9.63;;;3.40;97.20;;;;;;1693571;29;20218;-73
2023/01/28 06:52:06;;;;;;;9.90;8.90;;;3.40;97.20;;;;;;1693756;29;20634;-73
2023/01/28 06:52:57;;;;;;;11.23;10.02;;;3.40;97.20;;;;;;1693700;29;20239;-73
2023/01/28 06:53:48;;;;;;;9.43;8.57;;;3.40;97.20;;;;;;1700282;29;20218;-73
2023/01/28 06:54:39;;;;;;;13.18;10.68;;;3.40;97.20;;;;;;1700452;29;20210;-74
2023/01/28 06:55:31;;;;;;;11.63;10.50;;;3.40;97.20;;;;;;1700469;29;20200;-73
2023/01/28 06:56:21;;;;;;;10.80;9.80;;;3.40;97.20;;;;;;1700393;29;20239;-73
2023/01/28 06:57:13;;;;;;;11.90;10.70;;;3.40;97.20;;;;;;1698668;29;20203;-73
2023/01/28 06:58:04;;;;;;;11.07;10.07;;;3.40;97.20;;;;;;1693776;29;20475;-73
2023/01/28 06:58:56;;;;;;;10.60;9.60;;;3.40;97.20;;;;;;1693668;29;20218;-73
2023/01/28 06:59:46;;;;;;;11.23;9.95;;;3.40;97.20;;;;;;1693753;29;20204;-73
2023/01/28 07:00:38;;;;;;;10.17;9.27;;;3.40;97.20;;;;;;1694887;29;20216;-73
2023/01/28 07:01:29;;;;;;;11.60;10.45;;;3.40;97.20;;;;;;1695022;29;20207;-74
2023/01/28 07:02:22;;;;;;;10.38;9.45;;;3.40;97.20;;;;;;1695056;29;20617;-73
2023/01/28 07:03:13;;;;;;;10.63;9.63;;;3.40;97.20;;;;;;1694451;29;20211;-73
2023/01/28 07:04:06;;;;;;;11.13;10.03;;;3.40;97.20;;;;;;1694971;29;20207;-73
2023/01/28 07:04:56;;;;;;;12.10;10.13;;;3.40;97.20;;;;;;1698592;29;20735;-74
2023/01/28 07:05:48;;;;;;;10.73;9.77;;;3.40;97.20;;;;;;1701466;29;20572;-73
2023/01/28 07:06:39;;;;;;;11.27;10.23;;;3.40;97.20;;;;;;1701583;29;20206;-73
2023/01/28 07:07:31;;;;;;;11.07;10.07;;;3.40;97.20;;;;;;1701574;29;20205;-72
2023/01/28 07:08:21;;;;;;;12.10;10.35;;;3.40;97.20;;;;;;1698413;29;20673;-72
2023/01/28 07:09:13;;;;;;;9.93;9.03;;;3.40;97.20;;;;;;1691431;29;21433;-72
2023/01/28 07:10:05;;;;;;;10.93;9.90;;;3.40;97.20;;;;;;1694212;29;20218;-72
2023/01/28 07:10:57;;;;;;;11.45;10.35;;;3.40;97.20;;;;;;1694385;29;20211;-72
2023/01/28 07:11:47;;;;;;;11.52;10.32;;;3.40;97.20;;;;;;1694789;29;20215;-72
2023/01/28 07:12:40;;;;;;;10.97;9.87;;;3.40;97.20;;;;;;1694836;29;20216;-72
2023/01/28 07:13:30;;;;;;;11.10;10.00;;;3.50;97.20;;;;;;1694500;29;20456;-73
2023/01/28 07:14:22;;;;;;;10.57;9.57;;;3.50;97.20;;;;;;1694369;29;20666;-73
2023/01/28 07:15:14;;;;;;;11.88;10.20;;;3.50;97.20;;;;;;1694305;29;20452;-73
2023/01/28 07:16:07;;;;;;;10.70;9.60;;;3.50;97.20;;;;;;1694700;29;20199;-73
2023/01/28 07:16:58;;;;;;;11.55;10.35;;;3.50;97.20;;;;;;1694679;29;20200;-73
2023/01/28 07:17:51;;;;;;;11.40;10.30;;;3.50;97.20;;;;;;1693442;29;20207;-73
2023/01/28 07:18:42;;;;;;;11.18;10.18;;;3.50;97.20;;;;;;1691853;29;20455;-73
2023/01/28 07:19:34;;;;;;;11.30;10.20;;;3.50;97.20;;;;;;1694521;29;20661;-73
2023/01/28 07:20:24;;;;;;;12.32;11.15;;;3.50;97.20;;;;;;1694399;29;20211;-73
2023/01/28 07:21:16;;;;;;;10.80;9.80;;;3.50;97.20;;;;;;1693226;29;20231;-73
2023/01/28 07:22:07;;;;;;;10.38;9.38;;;3.50;97.20;;;;;;1694888;29;20452;-73
2023/01/28 07:22:59;;;;;;;11.50;10.40;;;3.50;97.20;;;;;;1694700;29;20681;-72
2023/01/28 07:23:50;;;;;;;10.88;9.73;;;3.50;97.20;;;;;;1694653;29;20325;-73
2023/01/28 07:24:42;;;;;;;11.20;10.10;;;3.50;97.20;;;;;;1694884;29;20235;-73
2023/01/28 07:25:33;;;;;;;10.52;9.43;;;3.50;97.20;;;;;;1694916;29;20228;-73
2023/01/28 07:26:25;;;;;;;10.50;9.50;;;3.50;97.20;;;;;;1694898;29;20236;-73
2023/01/28 07:27:15;;;;;;;10.95;9.80;;;3.50;97.20;;;;;;1694854;29;20464;-73
2023/01/28 07:28:07;;;;;;;10.50;9.50;;;3.50;97.20;;;;;;1694813;29;20215;-74
2023/01/28 07:28:59;;;;;;;11.00;10.00;;;3.50;97.20;;;;;;1694867;29;20522;-73
2023/01/28 07:29:51;;;;;;;10.90;9.80;;;3.50;97.20;;;;;;1689254;29;20215;-73
2023/01/28 07:30:42;;;;;;;11.38;10.18;;;3.50;97.20;;;;;;1688102;29;20505;-73
2023/01/28 07:31:33;;;;;;;11.32;10.23;;;3.60;97.20;;;;;;1688412;29;20204;-74
2023/01/28 07:32:26;;;;;;;11.10;10.00;;;3.60;97.20;;;;;;1688373;29;20228;-74
2023/01/28 07:33:18;;;;;;;10.32;9.43;;;3.50;97.20;;;;;;1698895;29;20507;-73
2023/01/28 07:34:10;;;;;;;12.55;11.35;;;3.60;97.20;;;;;;1701248;29;20211;-73
2023/01/28 07:35:01;;;;;;;11.70;10.50;;;3.60;97.20;;;;;;1701328;29;20690;-72
2023/01/28 07:35:53;;;;;;;11.90;10.75;;;3.60;97.20;;;;;;1701341;29;20623;-73
2023/01/28 07:36:45;;;;;;;11.30;10.23;;;3.60;97.20;;;;;;1701218;29;20203;-72
2023/01/28 07:37:36;;;;;;;14.10;11.45;;;3.60;97.20;;;;;;1701400;29;20207;-71
2023/01/28 07:38:28;;;;;;;12.18;10.98;;;3.60;97.20;;;;;;1701296;29;20211;-71
2023/01/28 07:39:20;;;;;;;11.23;10.13;;;3.60;97.20;;;;;;1700756;29;20203;-74
2023/01/28 07:40:14;;;;;;;13.95;11.02;;;3.70;97.20;;;;;;1701468;29;20211;-75
2023/01/28 07:41:05;;;;;;;12.30;10.30;;;3.70;97.20;;;;;;1701103;29;20210;-74
2023/01/28 07:41:56;;;;;;;11.77;10.60;;;3.70;97.20;;;;;;1701293;29;20660;-73
2023/01/28 07:42:48;;;;;;;10.80;9.70;;;3.70;97.20;;;;;;1701234;29;20262;-74
2023/01/28 07:43:39;;;;;;;11.77;10.60;;;3.70;97.20;;;;;;1701129;29;20450;-74
2023/01/28 07:44:31;;;;;;;11.20;10.10;;;3.70;97.20;;;;;;1701343;29;20684;-73
2023/01/28 07:45:23;;;;;;;10.70;9.68;;;3.70;97.20;;;;;;1701348;29;20948;-74
2023/01/28 07:46:14;;;;;;;12.00;10.80;;;3.70;97.20;;;;;;1701294;29;20235;-74
2023/01/28 07:47:06;;;;;;;11.65;10.45;;;3.70;97.20;;;;;;1701184;29;20208;-74
2023/01/28 07:48:00;;;;;;;11.40;10.23;;;3.80;97.20;;;;;;1701229;29;20257;-74
2023/01/28 07:48:52;;;;;;;10.75;9.75;;;3.80;97.20;;;;;;1701289;29;20208;-74
2023/01/28 07:49:44;;;;;;;11.10;10.00;;;3.80;97.20;;;;;;1700710;29;20306;-73
2023/01/28 07:50:36;;;;;;;11.57;10.48;;;3.80;97.20;;;;;;1701165;29;20599;-75
2023/01/28 07:51:28;;;;;;;12.32;11.07;;;3.80;97.20;;;;;;1701261;29;20203;-76
2023/01/28 07:52:19;;;;;;;11.00;9.90;;;3.80;97.20;;;;;;1701240;29;20589;-75
2023/01/28 07:53:12;;;;;;;11.87;10.67;;;3.80;97.20;;;;;;1701067;29;20581;-73
2023/01/28 07:54:03;;;;;;;11.05;9.95;;;3.80;97.20;;;;;;1701202;29;20458;-73
2023/01/28 07:54:54;;;;;;;16.38;11.35;;;3.80;97.20;;;;;;1701237;29;20576;-74
2023/01/28 07:55:45;;;;;;;11.63;10.52;;;3.90;97.20;;;;;;1701117;29;20217;-73
2023/01/28 07:56:37;;;;;;;11.93;10.75;;;3.80;97.20;;;;;;1697026;29;20425;-75
2023/01/28 07:57:29;;;;;;;11.77;10.65;;;3.90;97.20;;;;;;1694588;29;20208;-74
2023/01/28 07:58:20;;;;;;;12.32;11.13;;;3.90;97.20;;;;;;1694612;29;20271;-74
2023/01/28 07:59:11;;;;;;;13.10;10.55;;;3.90;97.20;;;;;;1694828;29;20204;-74
2023/01/28 08:00:04;;;;;;;11.53;10.33;;;3.90;97.20;;;;;;1693887;29;20231;-73
2023/01/28 08:00:57;;;;;;;11.93;10.73;;;3.90;97.20;;;;;;1696184;29;20990;-74
2023/01/28 08:01:48;;;;;;;11.70;10.50;;;3.90;97.20;;;;;;1694609;29;20211;-74
2023/01/28 08:02:39;;;;;;;11.00;9.90;;;3.90;97.20;;;;;;1694645;29;20692;-74
2023/01/28 08:03:31;;;;;;;11.20;9.57;;;3.90;97.20;;;;;;1694433;29;20621;-74
2023/01/28 08:04:23;;;;;;;12.60;10.57;;;3.90;97.20;;;;;;1694559;29;20276;-74
2023/01/28 08:05:16;;;;;;;11.73;10.07;;;3.90;97.20;;;;;;1694716;29;20214;-74
2023/01/28 08:06:07;;;;;;;11.70;10.60;;;3.90;97.20;;;;;;1694596;29;20236;-74
2023/01/28 08:06:59;;;;;;;11.77;10.60;;;3.90;97.20;;;;;;1694659;29;20203;-74
2023/01/28 08:07:49;;;;;;;11.75;10.65;;;4.00;97.20;;;;;;1694346;29;20208;-74
2023/01/28 08:08:41;;;;;;;10.70;9.60;;;4.00;97.20;;;;;;1694707;29;20196;-73
2023/01/28 08:09:33;;;;;;;12.10;10.90;;;4.00;97.20;;;;;;1694104;29;20204;-74
2023/01/28 08:10:25;;;;;;;13.15;11.85;;;4.00;97.20;;;;;;1694302;29;20665;-73
2023/01/28 08:11:16;;;;;;;13.07;10.77;;;4.00;97.20;;;;;;1694382;29;20219;-74
2023/01/28 08:12:07;;;;;;;11.60;10.40;;;4.00;97.20;;;;;;1694287;29;20204;-74
2023/01/28 08:12:58;;;;;;;11.43;10.18;;;4.00;97.20;;;;;;1694429;29;20215;-74
2023/01/28 08:13:50;;;;;;;12.40;11.30;;;4.00;97.20;;;;;;1694474;29;20200;-73
2023/01/28 08:14:41;;;;;;;11.70;10.55;;;4.00;97.20;;;;;;1694569;29;20456;-74
2023/01/28 08:15:33;;;;;;;11.53;10.40;;;4.00;97.20;;;;;;1694599;29;20208;-73
2023/01/28 08:16:24;;;;;;;12.23;11.02;;;4.10;97.20;;;;;;1694499;29;20207;-73
2023/01/28 08:17:15;;;;;;;11.87;10.73;;;4.10;97.20;;;;;;1694656;29;20260;-73
2023/01/28 08:18:08;;;;;;;12.50;11.30;;;4.10;97.20;;;;;;1694402;29;20581;-74
2023/01/28 08:19:00;;;;;;;12.30;11.10;;;4.10;97.20;;;;;;1694502;29;20208;-73
2023/01/28 08:19:52;;;;;;;11.73;10.63;;;4.10;97.20;;;;;;1694021;29;20230;-74
2023/01/28 08:20:46;;;;;;;11.52;10.30;;;4.10;97.20;;;;;;1694317;29;20275;-74
2023/01/28 08:21:36;;;;;;;11.40;10.30;;;4.10;97.20;;;;;;1694559;29;20270;-74
2023/01/28 08:22:28;;;;;;;11.80;10.70;;;4.10;97.20;;;;;;1694461;29;20255;-73
2023/01/28 08:23:19;;;;;;;11.70;10.50;;;4.10;97.20;;;;;;1694254;29;20702;-73
2023/01/28 08:24:11;;;;;;;10.95;9.95;;;4.10;97.20;;;;;;1694540;29;20208;-74
2023/01/28 08:25:02;;;;;;;11.40;10.30;;;4.10;97.20;;;;;;1694447;29;20219;-73
2023/01/28 08:25:54;;;;;;;13.10;11.80;;;4.10;97.20;;;;;;1694088;29;20238;-74
2023/01/28 08:26:47;;;;;;;10.77;9.77;;;4.10;97.20;;;;;;1694305;29;20580;-74
2023/01/28 08:27:39;;;;;;;12.25;10.95;;;4.10;97.20;;;;;;1694475;29;20579;-74
2023/01/28 08:28:30;;;;;;;11.48;10.38;;;4.20;97.20;;;;;;1694500;29;20230;-74
2023/01/28 08:29:22;;;;;;;11.82;10.70;;;4.20;97.20;;;;;;1693941;29;20666;-71
2023/01/28 08:30:13;;;;;;;11.98;10.88;;;4.20;97.20;;;;;;1691713;29;20679;-73
2023/01/28 08:31:05;;;;;;;12.40;11.18;;;4.20;97.20;;;;;;1694020;29;20651;-73
2023/01/28 08:31:56;;;;;;;12.00;10.90;;;4.20;97.20;;;;;;1694320;29;20224;-73
2023/01/28 08:32:48;;;;;;;13.00;11.73;;;4.20;97.20;;;;;;1694328;29;20231;-73
2023/01/28 08:33:39;;;;;;;11.50;10.30;;;4.20;97.20;;;;;;1694107;29;20456;-73
2023/01/28 08:34:31;;;;;;;12.53;11.30;;;4.20;97.20;;;;;;1694434;29;20278;-71
2023/01/28 08:35:23;;;;;;;11.57;10.48;;;4.20;97.20;;;;;;1694266;29;20200;-72
2023/01/28 08:36:15;;;;;;;12.13;10.93;;;4.30;97.20;;;;;;1691565;29;20197;-73
2023/01/28 08:37:06;;;;;;;12.38;11.18;;;4.30;97.20;;;;;;1687761;29;20213;-73
2023/01/28 08:37:59;;;;;;;11.80;10.60;;;4.30;97.20;;;;;;1687882;29;20215;-74
2023/01/28 08:38:53;;;;;;;13.15;11.90;;;4.30;97.20;;;;;;1688168;29;20488;-72
2023/01/28 08:39:44;;;;;;;10.80;9.75;;;4.30;97.20;;;;;;1693891;29;20295;-73
2023/01/28 08:40:36;;;;;;;12.23;11.13;;;4.30;97.20;;;;;;1694287;29;20232;-74
2023/01/28 08:41:29;;;;;;;12.13;10.82;;;4.30;97.20;;;;;;1694410;29;20287;-73
2023/01/28 08:42:20;;;;;;;12.45;11.15;;;4.30;97.20;;;;;;1694361;29;20235;-73
2023/01/28 08:43:12;;;;;;;12.50;10.73;;;4.30;97.20;;;;;;1694261;29;20216;-73
2023/01/28 08:44:03;;;;;;;11.82;10.73;;;4.30;97.20;;;;;;1694268;29;20455;-73
2023/01/28 08:44:55;;;;;;;12.40;11.10;;;4.30;97.20;;;;;;1694408;29;20200;-72
2023/01/28 08:45:45;;;;;;;12.23;11.02;;;4.30;97.20;;;;;;1694322;29;20214;-74
2023/01/28 08:46:37;;;;;;;12.27;11.17;;;4.30;97.20;;;;;;1694433;29;20725;-74
2023/01/28 08:47:28;;;;;;;12.10;10.90;;;4.30;97.20;;;;;;1694340;29;20451;-73
2023/01/28 08:48:20;;;;;;;12.73;11.43;;;4.30;97.20;;;;;;1694246;29;20204;-73
2023/01/28 08:49:11;;;;;;;12.50;11.32;;;4.30;97.20;;;;;;1693959;29;20518;-74
2023/01/28 08:50:03;;;;;;;13.37;12.00;;;4.30;97.20;;;;;;1693794;29;20266;-73
2023/01/28 08:50:58;;;;;;;13.73;12.32;;;4.40;97.20;;;;;;1694213;29;20501;-71
2023/01/28 08:51:50;;;;;;;16.55;12.05;;;4.40;97.20;;;;;;1694457;29;20670;-71
2023/01/28 08:52:43;;;;;;;14.65;12.82;;;4.40;97.20;;;;;;1693958;29;20207;-71
2023/01/28 08:53:35;;;;;;;13.70;12.27;;;4.50;97.20;;;;;;1694197;29;20200;-71
2023/01/28 08:54:25;;;;;;;13.05;11.75;;;4.50;97.20;;;;;;1694187;29;20215;-71
2023/01/28 08:55:18;;;;;;;13.80;12.47;;;4.50;97.20;;;;;;1694270;29;20685;-73
2023/01/28 08:56:09;;;;;;;12.52;11.32;;;4.60;97.20;;;;;;1693984;29;20535;-74
2023/01/28 08:57:01;;;;;;;12.60;11.40;;;4.60;97.20;;;;;;1694287;29;20207;-74
2023/01/28 08:57:53;;;;;;;13.10;11.80;;;4.60;97.20;;;;;;1694347;29;20459;-73
2023/01/28 08:58:44;;;;;;;12.82;11.50;;;4.60;97.20;;;;;;1694300;29;20615;-74
2023/01/28 08:59:39;;;;;;;13.00;11.55;;;4.70;97.20;;;;;;1693899;29;20212;-73
2023/01/28 09:00:31;;;;;;;12.18;10.98;;;4.70;97.20;;;;;;1694111;29;20683;-73
2023/01/28 09:01:22;;;;;;;13.23;11.93;;;4.70;97.20;;;;;;1694290;29;20495;-74
2023/01/28 09:02:14;;;;;;;14.03;11.30;;;4.70;97.20;;;;;;1694383;29;20246;-73
2023/01/28 09:03:06;;;;;;;12.10;10.90;;;4.70;97.20;;;;;;1694035;29;20484;-73
2023/01/28 09:03:57;;;;;;;11.23;10.05;;;4.70;97.20;;;;;;1694306;29;20235;-74
2023/01/28 09:04:48;;;;;;;12.50;11.25;;;4.70;97.20;;;;;;1694301;29;20581;-73
2023/01/28 09:05:40;;;;;;;12.10;10.90;;;4.70;97.20;;;;;;1693747;29;20227;-74
2023/01/28 09:06:32;;;;;;;13.15;11.75;;;4.70;97.20;;;;;;1693949;29;20484;-73
2023/01/28 09:07:24;;;;;;;12.23;11.10;;;4.70;97.20;;;;;;1694184;29;20216;-73
2023/01/28 09:08:15;;;;;;;13.32;12.10;;;4.70;97.20;;;;;;1694283;29;20297;-73
2023/01/28 09:09:07;;;;;;;12.50;11.30;;;4.70;97.20;;;;;;1694201;29;20656;-74
2023/01/28 09:09:58;;;;;;;11.73;10.60;;;4.70;97.20;;;;;;1693597;29;20230;-74
2023/01/28 09:10:55;;;;;;;12.90;11.60;;;4.70;97.20;;;;;;1694022;29;20243;-73
2023/01/28 09:11:46;;;;;;;11.68;10.57;;;4.70;97.20;;;;;;1694178;29;20452;-74
2023/01/28 09:12:38;;;;;;;11.93;10.63;;;4.70;97.20;;;;;;1694200;29;20636;-74
2023/01/28 09:13:29;;;;;;;12.40;11.20;;;4.70;97.20;;;;;;1693885;29;20459;-74
2023/01/28 09:14:21;;;;;;;12.17;10.93;;;4.70;97.20;;;;;;1694249;29;20207;-74
2023/01/28 09:15:11;;;;;;;12.82;11.27;;;4.70;97.20;;;;;;1693851;29;20470;-74
2023/01/28 09:16:05;;;;;;;12.27;11.17;;;4.70;97.20;;;;;;1693981;29;20215;-74
2023/01/28 09:16:56;;;;;;;12.95;11.57;;;4.70;97.20;;;;;;1694097;29;20484;-74
2023/01/28 09:17:48;;;;;;;11.50;10.33;;;4.70;97.20;;;;;;1692366;29;20207;-73
2023/01/28 09:18:39;;;;;;;11.68;10.40;;;4.70;97.20;;;;;;1696152;29;20455;-73
2023/01/28 09:19:30;;;;;;;12.27;11.07;;;4.70;97.20;;;;;;1693393;29;20287;-74
2023/01/28 09:20:21;;;;;;;12.30;10.90;;;4.80;97.20;;;;;;1693891;29;20211;-73
2023/01/28 09:21:13;;;;;;;12.00;10.87;;;4.80;97.20;;;;;;1693919;29;20207;-73
2023/01/28 09:22:05;;;;;;;13.23;11.75;;;4.80;97.20;;;;;;1693261;29;21260;-73
2023/01/28 09:22:59;;;;;;;11.70;10.57;;;4.80;97.20;;;;;;1693061;29;20218;-74
2023/01/28 09:23:49;;;;;;;12.63;11.05;;;4.80;97.20;;;;;;1696621;29;20214;-73
2023/01/28 09:24:41;;;;;;;13.27;11.97;;;4.80;97.20;;;;;;1698992;29;20234;-73
2023/01/28 09:25:34;;;;;;;12.85;11.60;;;4.90;97.20;;;;;;1694177;29;20208;-73
2023/01/28 09:26:26;;;;;;;11.93;10.75;;;4.90;97.20;;;;;;1694142;29;20233;-73
2023/01/28 09:27:17;;;;;;;12.23;11.02;;;4.90;97.20;;;;;;1694223;29;20215;-73
2023/01/28 09:28:09;;;;;;;12.50;11.30;;;4.90;97.20;;;;;;1694139;29;20208;-73
2023/01/28 09:29:00;;;;;;;11.20;10.10;;;5.00;97.20;;;;;;1693987;29;20207;-73
2023/01/28 09:29:52;;;;;;;13.13;11.83;;;5.00;97.20;;;;;;1692624;29;20211;-74
2023/01/28 09:30:42;;;;;;;11.95;10.75;;;5.00;97.20;;;;;;1692712;29;20487;-74
2023/01/28 09:31:34;;;;;;;12.67;11.40;;;5.10;97.20;;;;;;1693928;29;20239;-73
2023/01/28 09:32:25;;;;;;;12.30;11.10;;;5.10;97.20;;;;;;1694123;29;20526;-73
2023/01/28 09:33:17;;;;;;;11.93;10.80;;;5.10;97.20;;;;;;1693975;29;20271;-73
2023/01/28 09:34:08;;;;;;;11.77;10.68;;;5.20;97.20;;;;;;1693972;29;20208;-73
2023/01/28 09:35:00;;;;;;;12.90;11.70;;;5.20;97.20;;;;;;1693881;29;20218;-73
2023/01/28 09:35:51;;;;;;;12.50;11.23;;;5.30;97.20;;;;;;1695404;29;20208;-73
2023/01/28 09:36:42;;;;;;;11.93;10.73;;;5.30;97.20;;;;;;1694052;29;20195;-73
2023/01/28 09:37:34;;;;;;;11.85;10.65;;;5.40;97.20;;;;;;1694134;29;20688;-73
2023/01/28 09:38:26;;;;;;;12.90;11.45;;;5.40;97.20;;;;;;1694121;29;20204;-73
2023/01/28 09:39:17;;;;;;;13.15;11.75;;;5.40;97.20;;;;;;1693637;29;20718;-72
2023/01/28 09:40:15;;;;;;;13.67;11.57;;;5.50;97.20;;;;;;1694142;29;20586;-73
2023/01/28 09:41:23;;;;;;;12.13;10.93;;;5.50;97.20;;;;;;1693994;29;20242;-73
2023/01/28 09:42:32;;;;;;;12.55;11.27;;;5.60;97.20;;;;;;1694236;29;20204;-73
2023/01/28 09:43:50;;;;;;;11.50;10.45;;;5.60;97.20;;;;;;1693075;29;20224;-73
2023/01/28 09:44:53;;;;;;;13.02;11.82;;;5.60;97.20;;;;;;1694742;29;20283;-73
2023/01/28 09:45:47;;;;;;;12.75;11.45;;;5.70;97.20;;;;;;1692968;29;20204;-73
2023/01/28 09:46:41;;;;;;;12.15;10.95;;;5.80;97.20;;;;;;1699756;29;20322;-72
2023/01/28 09:47:36;;;;;;;14.13;12.70;;;5.90;97.20;;;;;;1693944;29;20231;-72
2023/01/28 09:48:32;;;;;;;13.48;12.07;;;5.90;97.20;;;;;;1691735;29;20206;-72
2023/01/28 09:49:31;;;;;;;12.98;11.68;;;6.00;97.20;;;;;;1693611;29;20204;-72
2023/01/28 09:50:27;;;;;;;11.93;10.77;;;6.00;97.20;;;;;;1693702;29;20232;-71
2023/01/28 09:51:31;;;;;;;12.70;11.40;;;6.00;97.20;;;;;;1693736;29;20207;-72
2023/01/28 09:52:24;;;;;;;12.77;11.50;;;6.00;97.20;;;;;;1694091;29;20212;-72
2023/01/28 09:53:22;;;;;;;13.48;12.10;;;6.00;97.20;;;;;;1693868;29;20202;-72
2023/01/28 09:54:25;;;;;;;12.52;11.23;;;6.00;97.20;;;;;;1694040;29;20208;-72
2023/01/28 09:55:24;;;;;;;13.30;12.00;;;6.10;97.20;;;;;;1694148;29;20218;-72
2023/01/28 09:56:24;;;;;;;12.50;11.20;;;6.10;97.20;;;;;;1694114;29;20204;-72
2023/01/28 09:57:21;;;;;;;14.52;13.02;;;6.10;97.20;;;;;;1694173;29;20682;-72
2023/01/28 09:58:15;;;;;;;12.35;11.10;;;6.10;97.20;;;;;;1693806;29;20697;-72
2023/01/28 09:59:20;;;;;;;12.73;11.23;;;6.10;97.20;;;;;;1694008;29;20207;-73
2023/01/28 10:00:14;;;;;;;12.88;11.57;;;6.10;97.20;;;;;;1694105;29;20212;-73
2023/01/28 10:01:26;;;;;;;11.90;10.82;;;6.10;97.20;;;;;;1693879;29;20286;-73
2023/01/28 10:02:36;;;;;;;14.05;11.93;;;6.20;97.20;;;;;;1694032;29;20232;-73
2023/01/28 10:03:38;;;;;;;12.55;11.25;;;6.10;97.20;;;;;;1693805;29;20579;-76
2023/01/28 10:04:43;;;;;;;12.43;11.32;;;6.10;97.20;;;;;;1694000;29;20263;-74
2023/01/28 10:05:43;;;;;;;12.70;11.50;;;6.10;97.20;;;;;;1693994;29;20231;-74
2023/01/28 10:06:50;;;;;;;13.00;11.70;;;6.10;97.20;;;;;;1693908;29;20232;-73
2023/01/28 10:07:47;;;;;;;13.30;12.00;;;6.10;97.20;;;;;;1694073;29;20208;-73
2023/01/28 10:09:03;;;;;;;13.98;12.57;;;6.10;97.20;;;;;;1693224;29;20662;-73
2023/01/28 10:10:00;;;;;;;12.73;11.52;;;6.10;97.20;;;;;;1693508;29;20212;-73
2023/01/28 10:11:01;;;;;;;14.15;11.75;;;6.00;97.20;;;;;;1693657;29;20216;-72
2023/01/28 10:12:07;;;;;;;14.00;12.60;;;6.00;97.20;;;;;;1694069;29;20208;-72
2023/01/28 10:13:12;;;;;;;11.82;10.63;;;6.00;97.20;;;;;;1693389;29;20271;-73
2023/01/28 10:14:09;;;;;;;13.85;11.90;;;6.00;97.20;;;;;;1693822;29;20208;-73
2023/01/28 10:15:20;;;;;;;14.23;11.73;;;6.00;97.20;;;;;;1693991;29;20682;-72
2023/01/28 10:16:22;;;;;;;14.23;12.25;;;6.00;97.20;;;;;;1694029;29;20215;-72
2023/01/28 10:17:19;;;;;;;13.18;11.88;;;6.00;97.20;;;;;;1694079;29;20216;-72
2023/01/28 10:18:12;;;;;;;13.55;12.25;;;6.00;97.20;;;;;;1693729;29;20632;-72
2023/01/28 10:19:10;;;;;;;13.23;11.82;;;6.00;97.20;;;;;;1693984;29;20212;-73
2023/01/28 10:20:14;;;;;;;13.02;11.30;;;6.00;97.20;;;;;;1693501;29;20219;-72
2023/01/28 10:21:10;;;;;;;13.48;11.77;;;5.90;97.20;;;;;;1693904;29;20208;-72
2023/01/28 10:22:04;;;;;;;12.70;11.40;;;5.80;97.20;;;;;;1694059;29;20212;-73
2023/01/28 10:23:00;;;;;;;13.65;12.25;;;5.70;97.20;;;;;;1693795;29;20196;-72
2023/01/28 10:23:58;;;;;;;12.70;11.40;;;5.70;97.20;;;;;;1694049;29;20212;-72
2023/01/28 10:24:56;;;;;;;13.30;11.90;;;5.60;97.20;;;;;;1694035;29;20272;-72
2023/01/28 10:25:47;;;;;;;13.32;11.57;;;5.60;97.20;;;;;;1694066;29;20219;-72
2023/01/28 10:26:41;;;;;;;13.25;11.95;;;5.50;97.20;;;;;;1693908;29;20615;-73
2023/01/28 10:27:34;;;;;;;12.63;11.40;;;5.40;97.20;;;;;;1694027;29;20263;-73
2023/01/28 10:28:28;;;;;;;13.48;12.15;;;5.30;97.20;;;;;;1693620;29;20283;-73
2023/01/28 10:29:23;;;;;;;13.68;12.32;;;5.30;97.20;;;;;;1693551;29;20204;-72
2023/01/28 10:30:18;;;;;;;13.00;11.70;;;5.20;97.20;;;;;;1693763;29;20259;-73
2023/01/28 10:31:11;;;;;;;13.60;12.10;;;5.20;97.20;;;;;;1693850;29;20263;-73
2023/01/28 10:32:17;;;;;;;14.10;12.65;;;5.10;97.20;;;;;;1693955;29;20235;-72
2023/01/28 10:33:16;;;;;;;13.45;12.05;;;5.10;97.20;;;;;;1693767;29;20239;-72
2023/01/28 10:34:10;;;;;;;14.73;13.05;;;5.10;97.20;;;;;;1694947;29;20239;-71